Regatta — V7DM3 — position and weather

sailwx.info

Track history (hours):
 
Tides and Currents Weather Stations Pressure Air Temp Water Temp Dewpoint Dewpoint Depression Visibility Wind Speed Wind Dir Waves Ship Positions

Regatta

Last reported at 2019-Jul-20 03:00 UTC. Time now 2019-Jul-20 13:29 UTC.
Position N 58°12' W 134°24'.

Length 180 m; draft 5.7 m.

Type: Passenger vessel. MMSI: 538001664.

Wind from 090 at 6 knots

Barometer 1022.0 mb
Air temperature 14.0 ° C
Visibility: greater than 2.2 NM
Dewpoint 12.3 ° C
Water temperature 14.0 ° C

Date/timePositionNaut miles runAvg speedWind from/ knotsBaromVisibWave heightAir tempDewpointWater temp
2019-Jul-20 03:00N 58°12' W 134°24'72 5.6 090 / 61022.0 2.2 14.012.314.0
2019-Jul-19 14:00N 57°00' W 134°12'13210.1 300 / 51018.0 5.4 13.013.011.0
2019-Jul-19 01:00N 55°18' W 131°42'50 3.6 150 / 121016.0 5.4 13.013.011.0
2019-Jul-18 11:14N 54°32' W 131°08'617.9
2019-Jul-18 10:53N 54°26' W 131°06'717.9
2019-Jul-18 10:30N 54°19' W 131°03'917.6
2019-Jul-18 10:00N 54°11' W 131°02'918.1
2019-Jul-18 09:30N 54°01' W 131°02'918.7
2019-Jul-18 09:00N 53°52' W 131°02'1418.3
2019-Jul-18 08:14N 53°38' W 131°02'9715.5
2019-Jul-18 02:00N 52°12' W 129°48'5320.4 270 / 401010.0 5.4 15.013.315.0
2019-Jul-17 23:22N 51°21' W 129°21'616.7
2019-Jul-17 23:00N 51°17' W 129°14'816.7
2019-Jul-17 22:30N 51°14' W 129°01'917.2
2019-Jul-17 22:01N 51°11' W 128°48'917.1
2019-Jul-17 21:30N 51°09' W 128°35'917.1
2019-Jul-17 21:01N 51°06' W 128°22'603617.5
2019-Jul-17 21:00N 50°06' W 128°24'58120.4 250 / 221009.0 5.4 15.015.014.9
2019-Jul-17 20:30N 51°04' W 128°10'816.7
2019-Jul-17 20:00N 51°01' W 127°57'714.5
2019-Jul-17 19:30N 50°59' W 127°46'816.7
2019-Jul-17 18:59N 50°53' W 127°36'4917.8
2019-Jul-17 16:13N 50°30' W 126°27'317.1
2019-Jul-17 16:00N 50°30' W 126°22'8515.9
2019-Jul-17 16:00N 50°24' W 126°12'2914.8 180 / 101008.0 2.2 16.012.716.0
2019-Jul-17 14:00N 50°20' W 125°26'31237.1
2019-Jul-17 14:00N 50°18' W 125°24'511.1 150 / 131009.0 2.2 16.016.012.0
2019-Jul-17 13:30N 50°13' W 125°22'713.0
2019-Jul-17 13:00N 50°07' W 125°19'4 8.7
2019-Jul-17 12:30N 50°03' W 125°14'4 7.8
2019-Jul-17 12:00N 49°60' W 125°12'611.4
2019-Jul-17 11:30N 49°55' W 125°06'919.0
2019-Jul-17 11:00N 49°49' W 124°56'918.7
2019-Jul-17 10:30N 49°42' W 124°45'918.3
2019-Jul-17 10:00N 49°36' W 124°35'1018.3
2019-Jul-17 09:27N 49°29' W 124°24'817.9
2019-Jul-17 09:00N 49°24' W 124°14'917.9
2019-Jul-17 08:29N 49°22' W 124°00'816.0
2019-Jul-17 08:01N 49°19' W 123°49'816.1
2019-Jul-17 07:30N 49°15' W 123°38'816.1
2019-Jul-17 07:01N 49°10' W 123°29'918.2
2019-Jul-17 06:31N 49°03' W 123°19'918.3
2019-Jul-17 06:00N 48°57' W 123°09'1018.4
2019-Jul-17 05:29N 48°50' W 122°60'816.3
2019-Jul-17 05:00N 48°44' W 123°08'713.4
2019-Jul-17 04:30N 48°39' W 123°14'918.5
2019-Jul-17 04:01N 48°30' W 123°11'714.7
2019-Jul-17 03:30N 48°23' W 123°15'713.8
2019-Jul-17 03:01N 48°20' W 123°24'917.3
2019-Jul-17 02:29N 48°11' W 123°24'1214.0
2019-Jul-17 01:37N 48°13' W 123°07'417.1
2019-Jul-17 01:24N 48°12' W 123°01'2414.5
2019-Jul-16 23:46N 47°57' W 122°34'517.0
2019-Jul-16 23:30N 47°54' W 122°29'918.0
2019-Jul-16 23:00N 47°45' W 122°26'816.2
2019-Jul-16 22:30N 47°37' W 122°25'3 3.4
2019-Jul-16 21:44N 47°37' W 122°21'0 0.0
2019-Jul-16 21:23N 47°37' W 122°21'0 0.0
2019-Jul-16 20:44N 47°37' W 122°21'0 0.0
2019-Jul-16 20:02N 47°37' W 122°21'0 0.0
2019-Jul-16 19:59N 47°37' W 122°21'0 0.0
2019-Jul-16 19:19N 47°37' W 122°21'0 0.0
2019-Jul-16 18:55N 47°37' W 122°21'0 0.0
2019-Jul-16 18:19N 47°37' W 122°21'0 0.0
2019-Jul-16 17:31N 47°37' W 122°21'0 0.0
2019-Jul-16 17:13N 47°37' W 122°21'0 0.0
2019-Jul-16 16:46N 47°37' W 122°21'0 0.0
2019-Jul-16 16:25N 47°37' W 122°21'0 0.0
2019-Jul-16 15:46N 47°37' W 122°21'0 0.0
2019-Jul-16 15:22N 47°37' W 122°21'2 5.7
2019-Jul-16 15:00N 47°36' W 122°18'231.7 270 / 51019.0 5.4 16.012.712.0
2019-Jul-16 14:55N 47°37' W 122°21'0 0.0
2019-Jul-16 14:25N 47°37' W 122°21'0 0.0
2019-Jul-16 13:43N 47°37' W 122°21'0 0.0
2019-Jul-16 13:30N 47°37' W 122°21'1 2.7
2019-Jul-16 13:00N 47°36' W 122°23'510.7
2019-Jul-16 12:30N 47°40' W 122°28'612.3
2019-Jul-16 12:00N 47°46' W 122°27'612.4
2019-Jul-16 11:30N 47°52' W 122°29'22 8.6
2019-Jul-16 09:00N 48°06' W 122°54'823.4 270 / 121019.027.0 17.017.010.9
2019-Jul-16 08:40N 48°12' W 123°02'317.0
2019-Jul-16 08:28N 48°12' W 123°07'816.1
2019-Jul-16 07:59N 48°10' W 123°18'612.3
2019-Jul-16 07:30N 48°11' W 123°27'713.9
2019-Jul-16 07:00N 48°18' W 123°28'613.0
2019-Jul-16 06:30N 48°24' W 123°24'1 2.3
2019-Jul-16 05:59N 48°25' W 123°23'0 0.0
2019-Jul-16 05:29N 48°25' W 123°23'0 0.0
2019-Jul-16 04:59N 48°25' W 123°23'0 0.0
2019-Jul-16 04:29N 48°25' W 123°23'0 0.0
2019-Jul-16 03:59N 48°25' W 123°23'0 0.0
2019-Jul-16 03:29N 48°25' W 123°23'0 0.0
2019-Jul-16 02:59N 48°25' W 123°23'0 0.0
2019-Jul-16 02:29N 48°25' W 123°23'0 0.0
2019-Jul-16 01:59N 48°25' W 123°23'0 0.0
2019-Jul-16 01:29N 48°25' W 123°23'4 7.6
2019-Jul-16 01:00N 48°24' W 123°18'4499.9 230 / 141019.010.8 15.015.012.0
2019-Jul-16 00:59N 48°25' W 123°23'0 0.0
2019-Jul-16 00:29N 48°25' W 123°23'0 0.0
2019-Jul-15 23:59N 48°25' W 123°23'0 0.0
2019-Jul-15 23:29N 48°25' W 123°23'0 0.0
2019-Jul-15 22:56N 48°25' W 123°23'0 0.0
2019-Jul-15 22:29N 48°25' W 123°23'0 0.0
2019-Jul-15 21:59N 48°25' W 123°23'0 0.0
2019-Jul-15 21:29N 48°25' W 123°23'4 7.6
2019-Jul-15 21:00N 48°24' W 123°18'4409.0 150 / 41020.027.0 19.019.011.0
2019-Jul-15 20:59N 48°25' W 123°23'0 0.0
2019-Jul-15 20:29N 48°25' W 123°23'0 0.0
2019-Jul-15 19:59N 48°25' W 123°23'0 0.0
2019-Jul-15 19:29N 48°25' W 123°23'0 0.8
2019-Jul-15 19:00N 48°25' W 123°24'4 8.0
2019-Jul-15 18:30N 48°23' W 123°19'611.4
2019-Jul-15 18:00N 48°27' W 123°12'714.9
2019-Jul-15 17:30N 48°34' W 123°13'815.4
2019-Jul-15 17:00N 48°42' W 123°16'814.6
2019-Jul-15 16:28N 48°45' W 123°05'511.6
2019-Jul-15 16:00N 48°50' W 123°02'714.4
2019-Jul-15 15:30N 48°55' W 123°10'714.8
2019-Jul-15 15:00N 48°60' W 123°18'714.6
2019-Jul-15 14:30N 49°06' W 123°25'714.7
2019-Jul-15 14:00N 49°12' W 123°30'4 8.8
2019-Jul-15 13:30N 49°16' W 123°33'3 6.5
2019-Jul-15 13:00N 49°18' W 123°37'8572.7
2019-Jul-15 13:00N 49°12' W 123°30'1121.7 270 / 81020.0 5.4 17.017.014.0
2019-Jul-15 12:30N 49°19' W 123°42'3 6.6
2019-Jul-15 12:00N 49°21' W 123°46'3 6.7
2019-Jul-15 11:30N 49°18' W 123°48'4 7.8
2019-Jul-15 11:00N 49°20' W 123°54'4 7.9
2019-Jul-15 10:30N 49°21' W 123°60'714.6
2019-Jul-15 10:00N 49°23' W 124°10'918.4
2019-Jul-15 09:30N 49°27' W 124°24'918.7
2019-Jul-15 09:00N 49°33' W 124°34'918.8
2019-Jul-15 08:30N 49°41' W 124°43'1019.4
2019-Jul-15 08:00N 49°47' W 124°54'918.1
2019-Jul-15 07:30N 49°54' W 125°04'917.2
2019-Jul-15 07:01N 50°00' W 125°13'714.9
2019-Jul-15 06:31N 50°06' W 125°18'612.1
2019-Jul-15 06:00N 50°12' W 125°22'9213.8
2019-Jul-14 23:18N 50°52' W 127°34'516.8
2019-Jul-14 23:00N 50°55' W 127°40'917.2
2019-Jul-14 22:30N 50°60' W 127°51'918.0
2019-Jul-14 22:00N 51°02' W 128°05'918.9
2019-Jul-14 21:30N 51°05' W 128°19'1019.2
2019-Jul-14 21:00N 51°08' W 128°34'918.8
2019-Jul-14 20:30N 51°11' W 128°48'918.4
2019-Jul-14 20:00N 51°14' W 129°02'918.2
2019-Jul-14 19:30N 51°17' W 129°16'918.3
2019-Jul-14 19:00N 51°23' W 129°27'6368.1
2019-Jul-14 19:00N 51°18' W 129°24'8817.6 120 / 81018.010.8 16.016.0
2019-Jul-14 14:00N 52°36' W 130°30'4321.3 140 / 101018.0 5.4 15.015.013.0
2019-Jul-14 12:00N 53°18' W 130°42'621.4 100 / 151018.0 5.4 16.014.412.0
2019-Jul-14 11:44N 53°22' W 130°48'1418.6
2019-Jul-14 11:00N 53°35' W 130°53'918.9
2019-Jul-14 10:30N 53°45' W 130°55'918.6
2019-Jul-14 10:00N 53°54' W 130°57'918.3
2019-Jul-14 09:30N 54°03' W 131°00'917.8
2019-Jul-14 09:01N 54°12' W 131°02'918.1
2019-Jul-14 08:30N 54°21' W 131°04'918.0
2019-Jul-14 07:59N 54°30' W 131°08'1118.4
2019-Jul-14 07:23N 54°41' W 131°08'818.4
2019-Jul-14 06:59N 54°48' W 131°07'97 6.0
2019-Jul-13 15:00N 56°06' W 132°48'14210.1 310 / 61018.0 2.2 14.014.012.0
2019-Jul-13 01:00N 58°18' W 134°24'22 2.0 090 / 71019.0 5.4 15.015.010.0
2019-Jul-12 14:00N 58°06' W 135°00'10 9.5 270 / 41019.0 5.4 14.012.312.0
2019-Jul-12 13:00N 58°06' W 135°18'1353.3 360 / 91019.0 5.4 14.012.310.0
2019-Jul-12 12:45N 58°15' W 135°35'416.5
2019-Jul-12 12:30N 58°17' W 135°42'816.5
2019-Jul-12 12:00N 58°19' W 135°57'65213.3
2019-Jul-10 10:50N 49°01' W 126°27'617.9
2019-Jul-10 10:30N 48°58' W 126°20'918.2
2019-Jul-10 10:00N 48°52' W 126°10'918.0
2019-Jul-10 09:30N 48°46' W 125°59'917.9
2019-Jul-10 09:00N 48°42' W 125°47'918.3
2019-Jul-10 08:30N 48°38' W 125°35'918.5
2019-Jul-10 08:00N 48°34' W 125°22'918.1
2019-Jul-10 07:30N 48°31' W 125°09'1019.4
2019-Jul-10 06:59N 48°31' W 124°54'918.8
2019-Jul-10 06:30N 48°30' W 124°40'918.6
2019-Jul-10 06:00N 48°26' W 124°27'918.0
2019-Jul-10 05:30N 48°23' W 124°15'917.4
2019-Jul-10 04:59N 48°19' W 124°02'1317.4
2019-Jul-10 04:16N 48°16' W 123°44'615.9
2019-Jul-10 03:55N 48°15' W 123°35'715.9
2019-Jul-10 03:30N 48°12' W 123°27'  
Track history (hours):
 
Tides and Currents Weather Stations Pressure Air Temp Water Temp Dewpoint Dewpoint Depression Visibility Wind Speed Wind Dir Waves Ship Positions

Regatta

Last reported at 2019-Jul-20 03:00 UTC. Time now 2019-Jul-20 13:29 UTC.
Position N 58°12' W 134°24'.

Length 180 m; draft 5.7 m.

Type: Passenger vessel. MMSI: 538001664.

Wind from 090 at 6 knots

Barometer 1022.0 mb
Air temperature 14.0 ° C
Visibility: greater than 2.2 NM
Dewpoint 12.3 ° C
Water temperature 14.0 ° C

Date/timePositionNaut miles runAvg speedWind from/ knotsBaromVisibWave heightAir tempDewpointWater temp
2019-Jul-20 03:00N 58°12' W 134°24'72 5.6 090 / 61022.0 2.2 14.012.314.0
2019-Jul-19 14:00N 57°00' W 134°12'13210.1 300 / 51018.0 5.4 13.013.011.0
2019-Jul-19 01:00N 55°18' W 131°42'50 3.6 150 / 121016.0 5.4 13.013.011.0
2019-Jul-18 11:14N 54°32' W 131°08'617.9
2019-Jul-18 10:53N 54°26' W 131°06'717.9
2019-Jul-18 10:30N 54°19' W 131°03'917.6
2019-Jul-18 10:00N 54°11' W 131°02'918.1
2019-Jul-18 09:30N 54°01' W 131°02'918.7
2019-Jul-18 09:00N 53°52' W 131°02'1418.3
2019-Jul-18 08:14N 53°38' W 131°02'9715.5
2019-Jul-18 02:00N 52°12' W 129°48'5320.4 270 / 401010.0 5.4 15.013.315.0
2019-Jul-17 23:22N 51°21' W 129°21'616.7
2019-Jul-17 23:00N 51°17' W 129°14'816.7
2019-Jul-17 22:30N 51°14' W 129°01'917.2
2019-Jul-17 22:01N 51°11' W 128°48'917.1
2019-Jul-17 21:30N 51°09' W 128°35'917.1
2019-Jul-17 21:01N 51°06' W 128°22'603617.5
2019-Jul-17 21:00N 50°06' W 128°24'58120.4 250 / 221009.0 5.4 15.015.014.9
2019-Jul-17 20:30N 51°04' W 128°10'816.7
2019-Jul-17 20:00N 51°01' W 127°57'714.5
2019-Jul-17 19:30N 50°59' W 127°46'816.7
2019-Jul-17 18:59N 50°53' W 127°36'4917.8
2019-Jul-17 16:13N 50°30' W 126°27'317.1
2019-Jul-17 16:00N 50°30' W 126°22'8515.9
2019-Jul-17 16:00N 50°24' W 126°12'2914.8 180 / 101008.0 2.2 16.012.716.0
2019-Jul-17 14:00N 50°20' W 125°26'31237.1
2019-Jul-17 14:00N 50°18' W 125°24'511.1 150 / 131009.0 2.2 16.016.012.0
2019-Jul-17 13:30N 50°13' W 125°22'713.0
2019-Jul-17 13:00N 50°07' W 125°19'4 8.7
2019-Jul-17 12:30N 50°03' W 125°14'4 7.8
2019-Jul-17 12:00N 49°60' W 125°12'611.4
2019-Jul-17 11:30N 49°55' W 125°06'919.0
2019-Jul-17 11:00N 49°49' W 124°56'918.7
2019-Jul-17 10:30N 49°42' W 124°45'918.3
2019-Jul-17 10:00N 49°36' W 124°35'1018.3
2019-Jul-17 09:27N 49°29' W 124°24'817.9
2019-Jul-17 09:00N 49°24' W 124°14'917.9
2019-Jul-17 08:29N 49°22' W 124°00'816.0
2019-Jul-17 08:01N 49°19' W 123°49'816.1
2019-Jul-17 07:30N 49°15' W 123°38'816.1
2019-Jul-17 07:01N 49°10' W 123°29'918.2
2019-Jul-17 06:31N 49°03' W 123°19'918.3
2019-Jul-17 06:00N 48°57' W 123°09'1018.4
2019-Jul-17 05:29N 48°50' W 122°60'816.3
2019-Jul-17 05:00N 48°44' W 123°08'713.4
2019-Jul-17 04:30N 48°39' W 123°14'918.5
2019-Jul-17 04:01N 48°30' W 123°11'714.7
2019-Jul-17 03:30N 48°23' W 123°15'713.8
2019-Jul-17 03:01N 48°20' W 123°24'917.3
2019-Jul-17 02:29N 48°11' W 123°24'1214.0
2019-Jul-17 01:37N 48°13' W 123°07'417.1
2019-Jul-17 01:24N 48°12' W 123°01'2414.5
2019-Jul-16 23:46N 47°57' W 122°34'517.0
2019-Jul-16 23:30N 47°54' W 122°29'918.0
2019-Jul-16 23:00N 47°45' W 122°26'816.2
2019-Jul-16 22:30N 47°37' W 122°25'3 3.4
2019-Jul-16 21:44N 47°37' W 122°21'0 0.0
2019-Jul-16 21:23N 47°37' W 122°21'0 0.0
2019-Jul-16 20:44N 47°37' W 122°21'0 0.0
2019-Jul-16 20:02N 47°37' W 122°21'0 0.0
2019-Jul-16 19:59N 47°37' W 122°21'0 0.0
2019-Jul-16 19:19N 47°37' W 122°21'0 0.0
2019-Jul-16 18:55N 47°37' W 122°21'0 0.0
2019-Jul-16 18:19N 47°37' W 122°21'0 0.0
2019-Jul-16 17:31N 47°37' W 122°21'0 0.0
2019-Jul-16 17:13N 47°37' W 122°21'0 0.0
2019-Jul-16 16:46N 47°37' W 122°21'0 0.0
2019-Jul-16 16:25N 47°37' W 122°21'0 0.0
2019-Jul-16 15:46N 47°37' W 122°21'0 0.0
2019-Jul-16 15:22N 47°37' W 122°21'2 5.7
2019-Jul-16 15:00N 47°36' W 122°18'231.7 270 / 51019.0 5.4 16.012.712.0
2019-Jul-16 14:55N 47°37' W 122°21'0 0.0
2019-Jul-16 14:25N 47°37' W 122°21'0 0.0
2019-Jul-16 13:43N 47°37' W 122°21'0 0.0
2019-Jul-16 13:30N 47°37' W 122°21'1 2.7
2019-Jul-16 13:00N 47°36' W 122°23'510.7
2019-Jul-16 12:30N 47°40' W 122°28'612.3
2019-Jul-16 12:00N 47°46' W 122°27'612.4
2019-Jul-16 11:30N 47°52' W 122°29'22 8.6
2019-Jul-16 09:00N 48°06' W 122°54'823.4 270 / 121019.027.0 17.017.010.9
2019-Jul-16 08:40N 48°12' W 123°02'317.0
2019-Jul-16 08:28N 48°12' W 123°07'816.1
2019-Jul-16 07:59N 48°10' W 123°18'612.3
2019-Jul-16 07:30N 48°11' W 123°27'713.9
2019-Jul-16 07:00N 48°18' W 123°28'613.0
2019-Jul-16 06:30N 48°24' W 123°24'1 2.3
2019-Jul-16 05:59N 48°25' W 123°23'0 0.0
2019-Jul-16 05:29N 48°25' W 123°23'0 0.0
2019-Jul-16 04:59N 48°25' W 123°23'0 0.0
2019-Jul-16 04:29N 48°25' W 123°23'0 0.0
2019-Jul-16 03:59N 48°25' W 123°23'0 0.0
2019-Jul-16 03:29N 48°25' W 123°23'0 0.0
2019-Jul-16 02:59N 48°25' W 123°23'0 0.0
2019-Jul-16 02:29N 48°25' W 123°23'0 0.0
2019-Jul-16 01:59N 48°25' W 123°23'0 0.0
2019-Jul-16 01:29N 48°25' W 123°23'4 7.6
2019-Jul-16 01:00N 48°24' W 123°18'4499.9 230 / 141019.010.8 15.015.012.0
2019-Jul-16 00:59N 48°25' W 123°23'0 0.0
2019-Jul-16 00:29N 48°25' W 123°23'0 0.0
2019-Jul-15 23:59N 48°25' W 123°23'0 0.0
2019-Jul-15 23:29N 48°25' W 123°23'0 0.0
2019-Jul-15 22:56N 48°25' W 123°23'0 0.0
2019-Jul-15 22:29N 48°25' W 123°23'0 0.0
2019-Jul-15 21:59N 48°25' W 123°23'0 0.0
2019-Jul-15 21:29N 48°25' W 123°23'4 7.6
2019-Jul-15 21:00N 48°24' W 123°18'4409.0 150 / 41020.027.0 19.019.011.0
2019-Jul-15 20:59N 48°25' W 123°23'0 0.0
2019-Jul-15 20:29N 48°25' W 123°23'0 0.0
2019-Jul-15 19:59N 48°25' W 123°23'0 0.0
2019-Jul-15 19:29N 48°25' W 123°23'0 0.8
2019-Jul-15 19:00N 48°25' W 123°24'4 8.0
2019-Jul-15 18:30N 48°23' W 123°19'611.4
2019-Jul-15 18:00N 48°27' W 123°12'714.9
2019-Jul-15 17:30N 48°34' W 123°13'815.4
2019-Jul-15 17:00N 48°42' W 123°16'814.6
2019-Jul-15 16:28N 48°45' W 123°05'511.6
2019-Jul-15 16:00N 48°50' W 123°02'714.4
2019-Jul-15 15:30N 48°55' W 123°10'714.8
2019-Jul-15 15:00N 48°60' W 123°18'714.6
2019-Jul-15 14:30N 49°06' W 123°25'714.7
2019-Jul-15 14:00N 49°12' W 123°30'4 8.8
2019-Jul-15 13:30N 49°16' W 123°33'3 6.5
2019-Jul-15 13:00N 49°18' W 123°37'8572.7
2019-Jul-15 13:00N 49°12' W 123°30'1121.7 270 / 81020.0 5.4 17.017.014.0
2019-Jul-15 12:30N 49°19' W 123°42'3 6.6
2019-Jul-15 12:00N 49°21' W 123°46'3 6.7
2019-Jul-15 11:30N 49°18' W 123°48'4 7.8
2019-Jul-15 11:00N 49°20' W 123°54'4 7.9
2019-Jul-15 10:30N 49°21' W 123°60'714.6
2019-Jul-15 10:00N 49°23' W 124°10'918.4
2019-Jul-15 09:30N 49°27' W 124°24'918.7
2019-Jul-15 09:00N 49°33' W 124°34'918.8
2019-Jul-15 08:30N 49°41' W 124°43'1019.4
2019-Jul-15 08:00N 49°47' W 124°54'918.1
2019-Jul-15 07:30N 49°54' W 125°04'917.2
2019-Jul-15 07:01N 50°00' W 125°13'714.9
2019-Jul-15 06:31N 50°06' W 125°18'612.1
2019-Jul-15 06:00N 50°12' W 125°22'9213.8
2019-Jul-14 23:18N 50°52' W 127°34'516.8
2019-Jul-14 23:00N 50°55' W 127°40'917.2
2019-Jul-14 22:30N 50°60' W 127°51'918.0
2019-Jul-14 22:00N 51°02' W 128°05'918.9
2019-Jul-14 21:30N 51°05' W 128°19'1019.2
2019-Jul-14 21:00N 51°08' W 128°34'918.8
2019-Jul-14 20:30N 51°11' W 128°48'918.4
2019-Jul-14 20:00N 51°14' W 129°02'918.2
2019-Jul-14 19:30N 51°17' W 129°16'918.3
2019-Jul-14 19:00N 51°23' W 129°27'6368.1
2019-Jul-14 19:00N 51°18' W 129°24'8817.6 120 / 81018.010.8 16.016.0
2019-Jul-14 14:00N 52°36' W 130°30'4321.3 140 / 101018.0 5.4 15.015.013.0
2019-Jul-14 12:00N 53°18' W 130°42'621.4 100 / 151018.0 5.4 16.014.412.0
2019-Jul-14 11:44N 53°22' W 130°48'1418.6
2019-Jul-14 11:00N 53°35' W 130°53'918.9
2019-Jul-14 10:30N 53°45' W 130°55'918.6
2019-Jul-14 10:00N 53°54' W 130°57'918.3
2019-Jul-14 09:30N 54°03' W 131°00'917.8
2019-Jul-14 09:01N 54°12' W 131°02'918.1
2019-Jul-14 08:30N 54°21' W 131°04'918.0
2019-Jul-14 07:59N 54°30' W 131°08'1118.4
2019-Jul-14 07:23N 54°41' W 131°08'818.4
2019-Jul-14 06:59N 54°48' W 131°07'97 6.0
2019-Jul-13 15:00N 56°06' W 132°48'14210.1 310 / 61018.0 2.2 14.014.012.0
2019-Jul-13 01:00N 58°18' W 134°24'22 2.0 090 / 71019.0 5.4 15.015.010.0
2019-Jul-12 14:00N 58°06' W 135°00'10 9.5 270 / 41019.0 5.4 14.012.312.0
2019-Jul-12 13:00N 58°06' W 135°18'1353.3 360 / 91019.0 5.4 14.012.310.0
2019-Jul-12 12:45N 58°15' W 135°35'416.5
2019-Jul-12 12:30N 58°17' W 135°42'816.5
2019-Jul-12 12:00N 58°19' W 135°57'65213.3
2019-Jul-10 10:50N 49°01' W 126°27'617.9
2019-Jul-10 10:30N 48°58' W 126°20'918.2
2019-Jul-10 10:00N 48°52' W 126°10'918.0
2019-Jul-10 09:30N 48°46' W 125°59'917.9
2019-Jul-10 09:00N 48°42' W 125°47'918.3
2019-Jul-10 08:30N 48°38' W 125°35'918.5
2019-Jul-10 08:00N 48°34' W 125°22'918.1
2019-Jul-10 07:30N 48°31' W 125°09'1019.4
2019-Jul-10 06:59N 48°31' W 124°54'918.8
2019-Jul-10 06:30N 48°30' W 124°40'918.6
2019-Jul-10 06:00N 48°26' W 124°27'918.0
2019-Jul-10 05:30N 48°23' W 124°15'917.4
2019-Jul-10 04:59N 48°19' W 124°02'1317.4
2019-Jul-10 04:16N 48°16' W 123°44'615.9
2019-Jul-10 03:55N 48°15' W 123°35'715.9
2019-Jul-10 03:30N 48°12' W 123°27'  

Dump ship's entire track history